sensor_id;sensor_type;location;lat;lon;timestamp;temperature;humidity
7562;DHT22;3822;48.784;9.174;2023-04-15T00:00:38;11.70;61.40
7562;DHT22;3822;48.784;9.174;2023-04-15T00:03:05;11.70;61.50
7562;DHT22;3822;48.784;9.174;2023-04-15T00:05:34;11.70;61.60
7562;DHT22;3822;48.784;9.174;2023-04-15T00:08:03;11.70;61.60
7562;DHT22;3822;48.784;9.174;2023-04-15T00:10:30;11.60;61.70
7562;DHT22;3822;48.784;9.174;2023-04-15T00:13:03;11.60;61.70
7562;DHT22;3822;48.784;9.174;2023-04-15T00:15:30;11.50;62.30
7562;DHT22;3822;48.784;9.174;2023-04-15T00:17:59;11.50;61.80
7562;DHT22;3822;48.784;9.174;2023-04-15T00:20:25;11.50;61.90
7562;DHT22;3822;48.784;9.174;2023-04-15T00:22:51;11.40;62.00
7562;DHT22;3822;48.784;9.174;2023-04-15T00:25:18;11.40;62.20
7562;DHT22;3822;48.784;9.174;2023-04-15T00:27:47;11.40;62.30
7562;DHT22;3822;48.784;9.174;2023-04-15T00:30:13;11.40;62.50
7562;DHT22;3822;48.784;9.174;2023-04-15T00:32:39;11.40;62.70
7562;DHT22;3822;48.784;9.174;2023-04-15T00:35:11;11.30;62.70
7562;DHT22;3822;48.784;9.174;2023-04-15T00:37:42;11.30;62.80
7562;DHT22;3822;48.784;9.174;2023-04-15T00:40:14;11.30;63.00
7562;DHT22;3822;48.784;9.174;2023-04-15T00:42:42;11.20;63.10
7562;DHT22;3822;48.784;9.174;2023-04-15T00:45:15;11.20;63.20
7562;DHT22;3822;48.784;9.174;2023-04-15T00:47:47;11.20;63.30
7562;DHT22;3822;48.784;9.174;2023-04-15T00:50:13;11.20;63.50
7562;DHT22;3822;48.784;9.174;2023-04-15T00:52:42;11.10;63.40
7562;DHT22;3822;48.784;9.174;2023-04-15T00:55:11;11.10;64.10
7562;DHT22;3822;48.784;9.174;2023-04-15T00:57:40;11.10;63.50
7562;DHT22;3822;48.784;9.174;2023-04-15T01:00:07;11.00;63.50
7562;DHT22;3822;48.784;9.174;2023-04-15T01:02:43;11.00;63.50
7562;DHT22;3822;48.784;9.174;2023-04-15T01:05:11;11.00;63.70
7562;DHT22;3822;48.784;9.174;2023-04-15T01:07:37;11.00;63.70
7562;DHT22;3822;48.784;9.174;2023-04-15T01:10:06;10.90;64.40
7562;DHT22;3822;48.784;9.174;2023-04-15T01:12:38;10.90;63.80
7562;DHT22;3822;48.784;9.174;2023-04-15T01:15:04;10.90;63.90
7562;DHT22;3822;48.784;9.174;2023-04-15T01:17:31;10.90;64.00
7562;DHT22;3822;48.784;9.174;2023-04-15T01:19:59;10.80;64.00
7562;DHT22;3822;48.784;9.174;2023-04-15T01:22:26;10.80;64.30
7562;DHT22;3822;48.784;9.174;2023-04-15T01:25:08;10.80;64.40
7562;DHT22;3822;48.784;9.174;2023-04-15T01:27:42;10.80;64.60
7562;DHT22;3822;48.784;9.174;2023-04-15T01:30:14;10.70;64.70
7562;DHT22;3822;48.784;9.174;2023-04-15T01:32:43;10.70;64.90
7562;DHT22;3822;48.784;9.174;2023-04-15T01:35:12;10.70;64.90
7562;DHT22;3822;48.784;9.174;2023-04-15T01:37:43;10.70;65.00
7562;DHT22;3822;48.784;9.174;2023-04-15T01:40:14;10.60;65.10
7562;DHT22;3822;48.784;9.174;2023-04-15T01:42:40;10.60;65.20
7562;DHT22;3822;48.784;9.174;2023-04-15T01:45:07;10.60;65.30
7562;DHT22;3822;48.784;9.174;2023-04-15T01:47:38;10.60;65.40
7562;DHT22;3822;48.784;9.174;2023-04-15T01:50:05;10.60;65.60
7562;DHT22;3822;48.784;9.174;2023-04-15T01:52:31;10.50;65.70
7562;DHT22;3822;48.784;9.174;2023-04-15T01:55:00;10.50;65.80
7562;DHT22;3822;48.784;9.174;2023-04-15T01:57:26;10.50;66.00
7562;DHT22;3822;48.784;9.174;2023-04-15T01:59:53;10.50;66.10
7562;DHT22;3822;48.784;9.174;2023-04-15T02:02:19;10.40;66.10
7562;DHT22;3822;48.784;9.174;2023-04-15T02:04:48;10.40;66.20
7562;DHT22;3822;48.784;9.174;2023-04-15T02:07:15;10.40;66.20
7562;DHT22;3822;48.784;9.174;2023-04-15T02:09:41;10.40;66.30
7562;DHT22;3822;48.784;9.174;2023-04-15T02:12:08;10.30;66.40
7562;DHT22;3822;48.784;9.174;2023-04-15T02:14:36;10.30;66.50
7562;DHT22;3822;48.784;9.174;2023-04-15T02:17:07;10.30;66.60
7562;DHT22;3822;48.784;9.174;2023-04-15T02:19:36;10.30;66.70
7562;DHT22;3822;48.784;9.174;2023-04-15T02:22:04;10.20;66.80
7562;DHT22;3822;48.784;9.174;2023-04-15T02:24:36;10.20;67.00
7562;DHT22;3822;48.784;9.174;2023-04-15T02:27:03;10.20;67.20
7562;DHT22;3822;48.784;9.174;2023-04-15T02:29:30;10.20;67.30
7562;DHT22;3822;48.784;9.174;2023-04-15T02:32:04;10.10;67.40
7562;DHT22;3822;48.784;9.174;2023-04-15T02:34:31;10.10;67.50
7562;DHT22;3822;48.784;9.174;2023-04-15T02:37:05;10.00;67.50
7562;DHT22;3822;48.784;9.174;2023-04-15T02:39:37;10.00;67.60
7562;DHT22;3822;48.784;9.174;2023-04-15T02:42:05;10.00;67.80
7562;DHT22;3822;48.784;9.174;2023-04-15T02:44:32;10.00;67.90
7562;DHT22;3822;48.784;9.174;2023-04-15T02:46:59;9.90;68.90
7562;DHT22;3822;48.784;9.174;2023-04-15T02:49:31;9.90;69.10
7562;DHT22;3822;48.784;9.174;2023-04-15T02:51:57;9.90;69.20
7562;DHT22;3822;48.784;9.174;2023-04-15T02:54:25;9.90;69.40
7562;DHT22;3822;48.784;9.174;2023-04-15T02:56:58;9.80;69.50
7562;DHT22;3822;48.784;9.174;2023-04-15T02:59:29;9.80;69.70
7562;DHT22;3822;48.784;9.174;2023-04-15T03:01:55;9.80;69.90
7562;DHT22;3822;48.784;9.174;2023-04-15T03:04:25;9.70;70.00
7562;DHT22;3822;48.784;9.174;2023-04-15T03:07:00;9.70;70.20
7562;DHT22;3822;48.784;9.174;2023-04-15T03:09:29;9.70;70.40
7562;DHT22;3822;48.784;9.174;2023-04-15T03:11:55;9.70;70.60
7562;DHT22;3822;48.784;9.174;2023-04-15T03:14:26;9.60;70.60
7562;DHT22;3822;48.784;9.174;2023-04-15T03:16:55;9.60;70.70
7562;DHT22;3822;48.784;9.174;2023-04-15T03:19:24;9.60;70.60
7562;DHT22;3822;48.784;9.174;2023-04-15T03:21:53;9.60;70.80
7562;DHT22;3822;48.784;9.174;2023-04-15T03:24:19;9.50;71.00
7562;DHT22;3822;48.784;9.174;2023-04-15T03:26:45;9.40;71.20
7562;DHT22;3822;48.784;9.174;2023-04-15T03:29:12;11.20;71.90
7562;DHT22;3822;48.784;9.174;2023-04-15T03:31:38;9.20;71.50
7562;DHT22;3822;48.784;9.174;2023-04-15T03:34:07;9.20;71.60
7562;DHT22;3822;48.784;9.174;2023-04-15T03:36:42;9.20;71.70
7562;DHT22;3822;48.784;9.174;2023-04-15T03:39:08;7.80;71.00
7562;DHT22;3822;48.784;9.174;2023-04-15T03:41:38;9.00;72.40
7562;DHT22;3822;48.784;9.174;2023-04-15T03:44:04;9.00;73.00
7562;DHT22;3822;48.784;9.174;2023-04-15T03:46:30;8.90;73.00
7562;DHT22;3822;48.784;9.174;2023-04-15T03:49:02;8.90;73.10
7562;DHT22;3822;48.784;9.174;2023-04-15T03:51:28;8.90;73.30
7562;DHT22;3822;48.784;9.174;2023-04-15T03:53:56;8.90;73.60
7562;DHT22;3822;48.784;9.174;2023-04-15T03:56:25;8.90;73.60
7562;DHT22;3822;48.784;9.174;2023-04-15T03:58:53;8.90;73.70
7562;DHT22;3822;48.784;9.174;2023-04-15T04:01:19;9.00;73.90
7562;DHT22;3822;48.784;9.174;2023-04-15T04:03:49;9.00;74.10
7562;DHT22;3822;48.784;9.174;2023-04-15T04:06:15;8.90;74.50
7562;DHT22;3822;48.784;9.174;2023-04-15T04:08:44;8.90;74.50
7562;DHT22;3822;48.784;9.174;2023-04-15T04:11:17;8.80;74.30
7562;DHT22;3822;48.784;9.174;2023-04-15T04:13:43;8.80;74.30
7562;DHT22;3822;48.784;9.174;2023-04-15T04:16:15;8.70;74.60
7562;DHT22;3822;48.784;9.174;2023-04-15T04:18:44;8.70;74.60
7562;DHT22;3822;48.784;9.174;2023-04-15T04:21:13;8.70;75.30
7562;DHT22;3822;48.784;9.174;2023-04-15T04:23:39;8.60;75.30
7562;DHT22;3822;48.784;9.174;2023-04-15T04:26:05;8.60;75.20
7562;DHT22;3822;48.784;9.174;2023-04-15T04:28:32;8.60;75.50
7562;DHT22;3822;48.784;9.174;2023-04-15T04:31:15;8.50;75.60
7562;DHT22;3822;48.784;9.174;2023-04-15T04:33:41;8.50;75.60
7562;DHT22;3822;48.784;9.174;2023-04-15T04:36:08;8.50;75.60
7562;DHT22;3822;48.784;9.174;2023-04-15T04:38:37;8.60;75.70
7562;DHT22;3822;48.784;9.174;2023-04-15T04:41:03;8.60;75.80
7562;DHT22;3822;48.784;9.174;2023-04-15T04:43:31;8.60;75.80
7562;DHT22;3822;48.784;9.174;2023-04-15T04:45:57;8.60;75.80
7562;DHT22;3822;48.784;9.174;2023-04-15T04:48:31;8.70;75.90
7562;DHT22;3822;48.784;9.174;2023-04-15T04:50:57;8.70;75.90
7562;DHT22;3822;48.784;9.174;2023-04-15T04:53:29;8.70;75.90
7562;DHT22;3822;48.784;9.174;2023-04-15T04:55:56;8.70;76.00
7562;DHT22;3822;48.784;9.174;2023-04-15T04:58:25;8.70;76.20
7562;DHT22;3822;48.784;9.174;2023-04-15T05:00:52;8.70;76.00
7562;DHT22;3822;48.784;9.174;2023-04-15T05:03:18;8.70;76.20
7562;DHT22;3822;48.784;9.174;2023-04-15T05:05:49;8.60;76.90
7562;DHT22;3822;48.784;9.174;2023-04-15T05:08:15;8.50;76.70
7562;DHT22;3822;48.784;9.174;2023-04-15T05:10:41;8.40;76.60
7562;DHT22;3822;48.784;9.174;2023-04-15T05:13:07;8.40;77.00
7562;DHT22;3822;48.784;9.174;2023-04-15T05:15:38;8.40;77.40
7562;DHT22;3822;48.784;9.174;2023-04-15T05:18:08;8.30;77.10
7562;DHT22;3822;48.784;9.174;2023-04-15T05:20:39;8.30;77.80
7562;DHT22;3822;48.784;9.174;2023-04-15T05:23:05;8.30;77.70
7562;DHT22;3822;48.784;9.174;2023-04-15T05:25:31;8.20;78.00
7562;DHT22;3822;48.784;9.174;2023-04-15T05:28:05;8.20;77.90
7562;DHT22;3822;48.784;9.174;2023-04-15T05:30:31;8.20;77.90
7562;DHT22;3822;48.784;9.174;2023-04-15T05:33:05;8.30;78.10
7562;DHT22;3822;48.784;9.174;2023-04-15T05:35:31;8.30;78.10
7562;DHT22;3822;48.784;9.174;2023-04-15T05:38:00;8.40;78.30
7562;DHT22;3822;48.784;9.174;2023-04-15T05:40:26;8.40;78.30
7562;DHT22;3822;48.784;9.174;2023-04-15T05:42:53;8.40;78.30
7562;DHT22;3822;48.784;9.174;2023-04-15T05:45:21;8.50;78.30
7562;DHT22;3822;48.784;9.174;2023-04-15T05:47:47;8.50;78.20
7562;DHT22;3822;48.784;9.174;2023-04-15T05:50:16;8.50;78.10
7562;DHT22;3822;48.784;9.174;2023-04-15T05:52:42;8.60;78.10
7562;DHT22;3822;48.784;9.174;2023-04-15T05:55:08;8.60;78.10
7562;DHT22;3822;48.784;9.174;2023-04-15T05:57:35;8.70;77.90
7562;DHT22;3822;48.784;9.174;2023-04-15T06:00:04;8.70;77.60
7562;DHT22;3822;48.784;9.174;2023-04-15T06:02:35;8.80;77.60
7562;DHT22;3822;48.784;9.174;2023-04-15T06:05:04;8.80;77.40
7562;DHT22;3822;48.784;9.174;2023-04-15T06:07:34;8.90;77.40
7562;DHT22;3822;48.784;9.174;2023-04-15T06:10:03;8.90;77.10
7562;DHT22;3822;48.784;9.174;2023-04-15T06:12:30;9.00;76.90
7562;DHT22;3822;48.784;9.174;2023-04-15T06:14:57;9.00;76.70
7562;DHT22;3822;48.784;9.174;2023-04-15T06:17:28;9.10;76.80
7562;DHT22;3822;48.784;9.174;2023-04-15T06:19:57;9.10;76.60
7562;DHT22;3822;48.784;9.174;2023-04-15T06:22:23;9.10;76.20
7562;DHT22;3822;48.784;9.174;2023-04-15T06:24:51;9.10;76.00
7562;DHT22;3822;48.784;9.174;2023-04-15T06:27:20;9.00;76.10
7562;DHT22;3822;48.784;9.174;2023-04-15T06:29:47;9.00;76.40
7562;DHT22;3822;48.784;9.174;2023-04-15T06:32:21;9.00;76.60
7562;DHT22;3822;48.784;9.174;2023-04-15T06:34:51;9.00;77.00
7562;DHT22;3822;48.784;9.174;2023-04-15T06:37:18;9.00;77.60
7562;DHT22;3822;48.784;9.174;2023-04-15T06:39:44;9.00;78.00
7562;DHT22;3822;48.784;9.174;2023-04-15T06:42:17;9.10;78.10
7562;DHT22;3822;48.784;9.174;2023-04-15T06:44:51;9.10;78.10
7562;DHT22;3822;48.784;9.174;2023-04-15T06:47:20;9.00;78.10
7562;DHT22;3822;48.784;9.174;2023-04-15T06:49:46;9.00;78.10
7562;DHT22;3822;48.784;9.174;2023-04-15T06:52:12;9.00;78.20
7562;DHT22;3822;48.784;9.174;2023-04-15T06:54:44;9.00;78.30
7562;DHT22;3822;48.784;9.174;2023-04-15T06:57:12;9.10;78.60
7562;DHT22;3822;48.784;9.174;2023-04-15T06:59:40;9.30;79.00
7562;DHT22;3822;48.784;9.174;2023-04-15T07:02:09;9.40;78.80
7562;DHT22;3822;48.784;9.174;2023-04-15T07:04:37;9.50;78.10
7562;DHT22;3822;48.784;9.174;2023-04-15T07:07:13;9.60;77.50
7562;DHT22;3822;48.784;9.174;2023-04-15T07:09:40;9.60;77.10
7562;DHT22;3822;48.784;9.174;2023-04-15T07:12:08;9.70;77.60
7562;DHT22;3822;48.784;9.174;2023-04-15T07:14:37;9.80;77.30
7562;DHT22;3822;48.784;9.174;2023-04-15T07:17:13;9.90;77.30
7562;DHT22;3822;48.784;9.174;2023-04-15T07:19:40;10.00;76.10
7562;DHT22;3822;48.784;9.174;2023-04-15T07:22:08;10.20;76.20
7562;DHT22;3822;48.784;9.174;2023-04-15T07:24:37;10.30;76.00
7562;DHT22;3822;48.784;9.174;2023-04-15T07:27:03;10.40;75.60
7562;DHT22;3822;48.784;9.174;2023-04-15T07:29:33;10.50;75.20
7562;DHT22;3822;48.784;9.174;2023-04-15T07:31:59;10.60;75.10
7562;DHT22;3822;48.784;9.174;2023-04-15T07:34:26;10.70;74.90
7562;DHT22;3822;48.784;9.174;2023-04-15T07:36:57;10.80;74.20
7562;DHT22;3822;48.784;9.174;2023-04-15T07:39:25;10.90;74.40
7562;DHT22;3822;48.784;9.174;2023-04-15T07:41:52;11.00;74.40
7562;DHT22;3822;48.784;9.174;2023-04-15T07:44:18;11.10;73.30
7562;DHT22;3822;48.784;9.174;2023-04-15T07:46:47;11.10;73.00
7562;DHT22;3822;48.784;9.174;2023-04-15T07:49:17;11.10;72.70
7562;DHT22;3822;48.784;9.174;2023-04-15T07:51:46;11.10;72.30
7562;DHT22;3822;48.784;9.174;2023-04-15T07:54:17;11.20;72.50
7562;DHT22;3822;48.784;9.174;2023-04-15T07:56:43;11.20;72.20
7562;DHT22;3822;48.784;9.174;2023-04-15T07:59:10;11.30;72.30
7562;DHT22;3822;48.784;9.174;2023-04-15T08:01:36;11.30;72.00
7562;DHT22;3822;48.784;9.174;2023-04-15T08:04:08;11.30;72.10
7562;DHT22;3822;48.784;9.174;2023-04-15T08:06:35;11.30;72.10
7562;DHT22;3822;48.784;9.174;2023-04-15T08:09:04;11.30;72.10
7562;DHT22;3822;48.784;9.174;2023-04-15T08:11:31;11.40;72.30
7562;DHT22;3822;48.784;9.174;2023-04-15T08:13:57;11.50;72.30
7562;DHT22;3822;48.784;9.174;2023-04-15T08:16:24;11.50;72.10
7562;DHT22;3822;48.784;9.174;2023-04-15T08:18:56;11.60;71.90
7562;DHT22;3822;48.784;9.174;2023-04-15T08:21:23;11.60;71.90
7562;DHT22;3822;48.784;9.174;2023-04-15T08:23:52;11.60;71.70
7562;DHT22;3822;48.784;9.174;2023-04-15T08:26:19;11.70;71.60
7562;DHT22;3822;48.784;9.174;2023-04-15T08:28:46;11.80;71.70
7562;DHT22;3822;48.784;9.174;2023-04-15T08:31:13;11.90;71.60
7562;DHT22;3822;48.784;9.174;2023-04-15T08:33:46;12.00;71.50
7562;DHT22;3822;48.784;9.174;2023-04-15T08:36:16;12.10;71.40
7562;DHT22;3822;48.784;9.174;2023-04-15T08:38:43;12.20;71.30
7562;DHT22;3822;48.784;9.174;2023-04-15T08:41:23;12.30;71.10
7562;DHT22;3822;48.784;9.174;2023-04-15T08:46:22;12.40;70.90
7562;DHT22;3822;48.784;9.174;2023-04-15T08:48:48;12.50;70.60
7562;DHT22;3822;48.784;9.174;2023-04-15T08:51:18;12.60;70.40
7562;DHT22;3822;48.784;9.174;2023-04-15T08:53:45;12.60;70.10
7562;DHT22;3822;48.784;9.174;2023-04-15T08:56:13;12.80;70.20
7562;DHT22;3822;48.784;9.174;2023-04-15T08:58:46;12.90;69.90
7562;DHT22;3822;48.784;9.174;2023-04-15T09:01:17;13.00;70.00
7562;DHT22;3822;48.784;9.174;2023-04-15T09:03:43;13.10;69.50
7562;DHT22;3822;48.784;9.174;2023-04-15T09:06:10;13.20;69.00
7562;DHT22;3822;48.784;9.174;2023-04-15T09:08:37;13.30;69.00
7562;DHT22;3822;48.784;9.174;2023-04-15T09:11:09;13.40;68.90
7562;DHT22;3822;48.784;9.174;2023-04-15T09:13:36;13.50;68.20
7562;DHT22;3822;48.784;9.174;2023-04-15T09:16:05;13.50;67.80
7562;DHT22;3822;48.784;9.174;2023-04-15T09:18:39;13.60;68.10
7562;DHT22;3822;48.784;9.174;2023-04-15T09:23:54;13.90;67.30
7562;DHT22;3822;48.784;9.174;2023-04-15T09:26:39;14.00;67.80
7562;DHT22;3822;48.784;9.174;2023-04-15T09:29:09;14.10;67.40
7562;DHT22;3822;48.784;9.174;2023-04-15T09:31:43;14.20;65.80
7562;DHT22;3822;48.784;9.174;2023-04-15T09:34:16;14.30;63.90
7562;DHT22;3822;48.784;9.174;2023-04-15T09:36:55;14.30;63.40
7562;DHT22;3822;48.784;9.174;2023-04-15T09:39:31;14.50;62.50
7562;DHT22;3822;48.784;9.174;2023-04-15T09:42:14;14.50;62.90
7562;DHT22;3822;48.784;9.174;2023-04-15T09:44:42;14.60;62.20
7562;DHT22;3822;48.784;9.174;2023-04-15T09:47:29;14.70;61.00
7562;DHT22;3822;48.784;9.174;2023-04-15T09:49:56;14.70;60.60
7562;DHT22;3822;48.784;9.174;2023-04-15T09:52:32;14.80;60.90
7562;DHT22;3822;48.784;9.174;2023-04-15T09:55:01;14.80;60.70
7562;DHT22;3822;48.784;9.174;2023-04-15T09:57:49;14.90;61.30
7562;DHT22;3822;48.784;9.174;2023-04-15T10:00:15;14.90;61.30
7562;DHT22;3822;48.784;9.174;2023-04-15T10:02:42;15.00;59.40
7562;DHT22;3822;48.784;9.174;2023-04-15T10:05:09;15.00;59.20
7562;DHT22;3822;48.784;9.174;2023-04-15T10:07:39;15.00;58.50
7562;DHT22;3822;48.784;9.174;2023-04-15T10:10:07;14.90;57.80
7562;DHT22;3822;48.784;9.174;2023-04-15T10:12:54;14.90;58.00
7562;DHT22;3822;48.784;9.174;2023-04-15T10:15:21;14.90;59.10
7562;DHT22;3822;48.784;9.174;2023-04-15T10:17:54;15.00;59.00
7562;DHT22;3822;48.784;9.174;2023-04-15T10:20:25;15.00;58.70
7562;DHT22;3822;48.784;9.174;2023-04-15T10:22:52;15.10;57.80
7562;DHT22;3822;48.784;9.174;2023-04-15T10:25:18;15.10;58.20
7562;DHT22;3822;48.784;9.174;2023-04-15T10:27:52;15.10;58.20
7562;DHT22;3822;48.784;9.174;2023-04-15T10:30:19;15.10;57.30
7562;DHT22;3822;48.784;9.174;2023-04-15T10:32:45;15.10;57.70
7562;DHT22;3822;48.784;9.174;2023-04-15T10:35:21;15.10;57.30
7562;DHT22;3822;48.784;9.174;2023-04-15T10:37:50;15.10;57.70
7562;DHT22;3822;48.784;9.174;2023-04-15T10:40:31;15.20;57.90
7562;DHT22;3822;48.784;9.174;2023-04-15T10:43:04;15.20;58.20
7562;DHT22;3822;48.784;9.174;2023-04-15T10:45:34;15.30;58.60
7562;DHT22;3822;48.784;9.174;2023-04-15T10:48:09;15.30;58.70
7562;DHT22;3822;48.784;9.174;2023-04-15T10:50:41;15.40;58.20
7562;DHT22;3822;48.784;9.174;2023-04-15T10:53:30;15.40;57.50
7562;DHT22;3822;48.784;9.174;2023-04-15T10:55:56;15.40;56.50
7562;DHT22;3822;48.784;9.174;2023-04-15T10:58:39;15.40;56.10
7562;DHT22;3822;48.784;9.174;2023-04-15T11:01:14;15.30;56.10
7562;DHT22;3822;48.784;9.174;2023-04-15T11:03:42;15.30;56.60
7562;DHT22;3822;48.784;9.174;2023-04-15T11:06:09;15.40;56.40
7562;DHT22;3822;48.784;9.174;2023-04-15T11:08:58;15.40;56.70
7562;DHT22;3822;48.784;9.174;2023-04-15T11:12:03;15.40;56.60
7562;DHT22;3822;48.784;9.174;2023-04-15T11:14:39;15.40;55.90
7562;DHT22;3822;48.784;9.174;2023-04-15T11:17:06;15.50;56.80
7562;DHT22;3822;48.784;9.174;2023-04-15T11:19:38;15.50;57.30
7562;DHT22;3822;48.784;9.174;2023-04-15T11:22:08;15.60;57.30
7562;DHT22;3822;48.784;9.174;2023-04-15T11:24:50;15.60;56.90
7562;DHT22;3822;48.784;9.174;2023-04-15T11:27:20;15.70;56.30
7562;DHT22;3822;48.784;9.174;2023-04-15T11:29:49;15.70;55.30
7562;DHT22;3822;48.784;9.174;2023-04-15T11:32:16;15.80;54.40
7562;DHT22;3822;48.784;9.174;2023-04-15T11:34:44;15.80;55.20
7562;DHT22;3822;48.784;9.174;2023-04-15T11:37:13;15.90;55.10
7562;DHT22;3822;48.784;9.174;2023-04-15T11:39:41;16.00;55.10
7562;DHT22;3822;48.784;9.174;2023-04-15T11:42:17;16.10;54.90
7562;DHT22;3822;48.784;9.174;2023-04-15T11:44:43;16.10;54.20
7562;DHT22;3822;48.784;9.174;2023-04-15T11:47:22;16.80;55.40
7562;DHT22;3822;48.784;9.174;2023-04-15T11:50:03;16.10;54.50
7562;DHT22;3822;48.784;9.174;2023-04-15T11:52:56;16.10;54.80
7562;DHT22;3822;48.784;9.174;2023-04-15T11:55:26;16.00;54.80
7562;DHT22;3822;48.784;9.174;2023-04-15T11:58:08;15.90;55.20
7562;DHT22;3822;48.784;9.174;2023-04-15T12:00:53;16.00;55.50
7562;DHT22;3822;48.784;9.174;2023-04-15T12:03:28;16.00;55.40
7562;DHT22;3822;48.784;9.174;2023-04-15T12:11:19;16.00;55.60
7562;DHT22;3822;48.784;9.174;2023-04-15T12:13:53;16.00;55.40
7562;DHT22;3822;48.784;9.174;2023-04-15T12:16:26;16.10;56.00
7562;DHT22;3822;48.784;9.174;2023-04-15T12:18:53;16.10;56.30
7562;DHT22;3822;48.784;9.174;2023-04-15T12:21:25;16.20;56.00
7562;DHT22;3822;48.784;9.174;2023-04-15T12:23:56;16.20;55.70
7562;DHT22;3822;48.784;9.174;2023-04-15T12:26:28;16.20;54.00
7562;DHT22;3822;48.784;9.174;2023-04-15T12:29:06;16.20;54.10
7562;DHT22;3822;48.784;9.174;2023-04-15T12:31:34;16.20;54.10
7562;DHT22;3822;48.784;9.174;2023-04-15T12:34:14;16.00;55.80
7562;DHT22;3822;48.784;9.174;2023-04-15T12:36:40;15.80;58.20
7562;DHT22;3822;48.784;9.174;2023-04-15T12:39:07;15.60;59.90
7562;DHT22;3822;48.784;9.174;2023-04-15T12:41:33;15.40;62.50
7562;DHT22;3822;48.784;9.174;2023-04-15T12:44:05;15.10;64.40
7562;DHT22;3822;48.784;9.174;2023-04-15T12:46:32;14.90;64.80
7562;DHT22;3822;48.784;9.174;2023-04-15T12:49:06;14.70;65.30
7562;DHT22;3822;48.784;9.174;2023-04-15T12:51:32;14.60;67.70
7562;DHT22;3822;48.784;9.174;2023-04-15T12:54:05;14.50;67.60
7562;DHT22;3822;48.784;9.174;2023-04-15T12:56:32;14.40;68.40
7562;DHT22;3822;48.784;9.174;2023-04-15T12:59:06;14.40;68.60
7562;DHT22;3822;48.784;9.174;2023-04-15T13:01:37;14.30;68.50
7562;DHT22;3822;48.784;9.174;2023-04-15T13:04:06;14.30;68.80
7562;DHT22;3822;48.784;9.174;2023-04-15T13:06:35;14.20;68.30
7562;DHT22;3822;48.784;9.174;2023-04-15T13:09:04;14.20;68.50
7562;DHT22;3822;48.784;9.174;2023-04-15T13:11:31;14.20;68.50
7562;DHT22;3822;48.784;9.174;2023-04-15T13:14:02;14.10;68.10
7562;DHT22;3822;48.784;9.174;2023-04-15T13:16:32;14.10;68.00
7562;DHT22;3822;48.784;9.174;2023-04-15T13:19:02;14.10;68.70
7562;DHT22;3822;48.784;9.174;2023-04-15T13:21:31;14.10;68.70
7562;DHT22;3822;48.784;9.174;2023-04-15T13:24:05;14.10;68.40
7562;DHT22;3822;48.784;9.174;2023-04-15T13:26:37;14.20;68.20
7562;DHT22;3822;48.784;9.174;2023-04-15T13:29:04;14.20;68.70
7562;DHT22;3822;48.784;9.174;2023-04-15T13:31:30;14.30;68.00
7562;DHT22;3822;48.784;9.174;2023-04-15T13:33:56;14.30;67.30
7562;DHT22;3822;48.784;9.174;2023-04-15T13:36:26;14.40;66.60
7562;DHT22;3822;48.784;9.174;2023-04-15T13:38:52;14.40;66.20
7562;DHT22;3822;48.784;9.174;2023-04-15T13:41:19;14.50;65.10
7562;DHT22;3822;48.784;9.174;2023-04-15T13:43:50;14.50;61.80
7562;DHT22;3822;48.784;9.174;2023-04-15T13:46:16;14.40;61.40
7562;DHT22;3822;48.784;9.174;2023-04-15T13:48:42;14.50;59.80
7562;DHT22;3822;48.784;9.174;2023-04-15T13:51:09;14.50;57.30
7562;DHT22;3822;48.784;9.174;2023-04-15T13:53:38;14.50;56.20
7562;DHT22;3822;48.784;9.174;2023-04-15T13:56:07;14.50;55.70
7562;DHT22;3822;48.784;9.174;2023-04-15T13:58:33;14.50;53.50
7562;DHT22;3822;48.784;9.174;2023-04-15T14:01:04;15.80;54.80
7562;DHT22;3822;48.784;9.174;2023-04-15T14:03:31;14.60;54.00
7562;DHT22;3822;48.784;9.174;2023-04-15T14:05:58;14.60;54.40
7562;DHT22;3822;48.784;9.174;2023-04-15T14:08:27;13.60;53.50
7562;DHT22;3822;48.784;9.174;2023-04-15T14:10:54;14.70;54.30
7562;DHT22;3822;48.784;9.174;2023-04-15T14:13:21;14.80;53.60
7562;DHT22;3822;48.784;9.174;2023-04-15T14:15:50;14.70;52.40
7562;DHT22;3822;48.784;9.174;2023-04-15T14:18:16;14.70;50.40
7562;DHT22;3822;48.784;9.174;2023-04-15T14:20:45;14.70;51.10
7562;DHT22;3822;48.784;9.174;2023-04-15T14:23:17;14.70;49.90
7562;DHT22;3822;48.784;9.174;2023-04-15T14:25:43;14.70;49.60
7562;DHT22;3822;48.784;9.174;2023-04-15T14:28:09;14.60;48.90
7562;DHT22;3822;48.784;9.174;2023-04-15T14:30:39;14.60;48.90
7562;DHT22;3822;48.784;9.174;2023-04-15T14:33:05;14.60;48.80
7562;DHT22;3822;48.784;9.174;2023-04-15T14:35:38;14.50;49.40
7562;DHT22;3822;48.784;9.174;2023-04-15T14:38:04;14.50;49.60
7562;DHT22;3822;48.784;9.174;2023-04-15T14:40:39;14.60;50.10
7562;DHT22;3822;48.784;9.174;2023-04-15T14:43:08;14.60;50.30
7562;DHT22;3822;48.784;9.174;2023-04-15T14:45:37;14.50;50.40
7562;DHT22;3822;48.784;9.174;2023-04-15T14:48:04;14.50;49.70
7562;DHT22;3822;48.784;9.174;2023-04-15T14:50:31;14.40;49.80
7562;DHT22;3822;48.784;9.174;2023-04-15T14:53:06;14.40;50.20
7562;DHT22;3822;48.784;9.174;2023-04-15T14:55:32;14.40;50.60
7562;DHT22;3822;48.784;9.174;2023-04-15T14:58:06;14.30;50.70
7562;DHT22;3822;48.784;9.174;2023-04-15T15:00:38;14.30;51.10
7562;DHT22;3822;48.784;9.174;2023-04-15T15:03:10;14.30;51.50
7562;DHT22;3822;48.784;9.174;2023-04-15T15:08:07;14.30;52.10
7562;DHT22;3822;48.784;9.174;2023-04-15T15:10:39;14.30;52.30
7562;DHT22;3822;48.784;9.174;2023-04-15T15:13:06;14.20;52.60
7562;DHT22;3822;48.784;9.174;2023-04-15T15:15:34;14.10;53.00
7562;DHT22;3822;48.784;9.174;2023-04-15T15:18:06;14.10;53.30
7562;DHT22;3822;48.784;9.174;2023-04-15T15:20:32;14.10;53.70
7562;DHT22;3822;48.784;9.174;2023-04-15T15:23:03;14.00;54.10
7562;DHT22;3822;48.784;9.174;2023-04-15T15:25:32;13.90;54.50
7562;DHT22;3822;48.784;9.174;2023-04-15T15:28:05;13.90;54.70
7562;DHT22;3822;48.784;9.174;2023-04-15T15:30:32;13.80;54.90
7562;DHT22;3822;48.784;9.174;2023-04-15T15:33:05;13.80;55.10
7562;DHT22;3822;48.784;9.174;2023-04-15T15:35:32;13.80;55.20
7562;DHT22;3822;48.784;9.174;2023-04-15T15:38:05;13.80;55.50
7562;DHT22;3822;48.784;9.174;2023-04-15T15:40:34;13.80;56.50
7562;DHT22;3822;48.784;9.174;2023-04-15T15:43:02;13.70;56.40
7562;DHT22;3822;48.784;9.174;2023-04-15T15:45:29;13.70;56.40
7562;DHT22;3822;48.784;9.174;2023-04-15T15:47:57;13.70;56.50
7562;DHT22;3822;48.784;9.174;2023-04-15T15:50:30;13.70;56.70
7562;DHT22;3822;48.784;9.174;2023-04-15T15:52:56;13.70;57.00
7562;DHT22;3822;48.784;9.174;2023-04-15T15:55:28;13.60;56.80
7562;DHT22;3822;48.784;9.174;2023-04-15T15:57:54;13.60;56.80
7562;DHT22;3822;48.784;9.174;2023-04-15T16:00:20;13.70;56.90
7562;DHT22;3822;48.784;9.174;2023-04-15T16:02:53;13.70;57.00
7562;DHT22;3822;48.784;9.174;2023-04-15T16:05:26;13.70;57.10
7562;DHT22;3822;48.784;9.174;2023-04-15T16:07:57;13.70;57.50
7562;DHT22;3822;48.784;9.174;2023-04-15T16:10:26;13.70;57.90
7562;DHT22;3822;48.784;9.174;2023-04-15T16:12:53;13.60;58.00
7562;DHT22;3822;48.784;9.174;2023-04-15T16:15:23;13.60;58.20
7562;DHT22;3822;48.784;9.174;2023-04-15T16:17:55;13.60;58.90
7562;DHT22;3822;48.784;9.174;2023-04-15T16:20:26;13.60;61.50
7562;DHT22;3822;48.784;9.174;2023-04-15T16:22:56;13.40;61.90
7562;DHT22;3822;48.784;9.174;2023-04-15T16:25:28;13.40;63.70
7562;DHT22;3822;48.784;9.174;2023-04-15T16:27:55;13.30;64.10
7562;DHT22;3822;48.784;9.174;2023-04-15T16:30:21;13.30;67.50
7562;DHT22;3822;48.784;9.174;2023-04-15T16:32:50;13.20;69.30
7562;DHT22;3822;48.784;9.174;2023-04-15T16:35:17;13.10;68.80